createdAt,value
2022-09-27T07:06:37.646Z,98767.97
2022-09-27T07:11:44.630Z,98769.03
2022-09-27T07:16:48.910Z,98776.78
2022-09-27T07:21:54.505Z,98769.31
2022-09-27T07:26:58.720Z,98785.94
2022-09-27T07:32:03.138Z,98776.13
2022-09-27T07:37:08.679Z,98779.28
2022-09-27T07:42:13.138Z,98782.66
2022-09-27T07:47:17.848Z,98783.19
2022-09-27T07:52:22.356Z,98787.28
2022-09-27T07:57:26.540Z,98783.97
2022-09-27T08:02:32.996Z,98774.31
2022-09-27T08:07:40.180Z,98777.59
2022-09-27T08:12:43.654Z,98778.88
2022-09-27T08:17:47.176Z,98782.28
2022-09-27T08:22:51.983Z,98779.97
2022-09-27T08:27:59.879Z,98776.63
2022-09-27T08:33:03.986Z,98770.22
2022-09-27T08:38:09.619Z,98770.44
2022-09-27T08:43:21.416Z,98773.63
2022-09-27T08:48:29.195Z,98772.16
2022-09-27T08:53:39.108Z,98759.97
2022-09-27T08:58:49.969Z,98778.75
2022-09-27T09:03:56.798Z,98780.19
2022-09-27T09:09:17.564Z,98775.66
2022-09-27T09:14:46.746Z,98774.69
2022-09-27T09:20:05.811Z,98763.63
2022-09-27T09:25:29.429Z,98771.88
2022-09-27T09:30:42.861Z,98764.38
2022-09-27T09:35:52.911Z,98754.09
2022-09-27T09:41:02.771Z,98758.31
2022-09-27T09:46:15.447Z,98759.81
2022-09-27T09:51:23.417Z,98755.50
2022-09-27T09:56:33.864Z,98757.50
2022-09-27T10:01:43.204Z,98750.75
2022-09-27T10:06:47.332Z,98748.13
2022-09-27T10:11:53.073Z,98738.88
2022-09-27T10:17:01.192Z,98741.69
2022-09-27T10:22:16.074Z,98738.84
2022-09-27T10:27:21.473Z,98737.41
2022-09-27T10:32:27.691Z,98728.22
2022-09-27T10:37:32.492Z,98732.84
2022-09-27T10:42:39.034Z,98728.53
2022-09-27T10:47:43.375Z,98716.75
2022-09-27T10:52:46.859Z,98705.25
2022-09-27T10:57:56.018Z,98706.38
2022-09-27T11:03:02.674Z,98706.59
2022-09-27T11:08:27.578Z,98702.38
2022-09-27T11:13:34.654Z,98705.34
2022-09-27T11:18:49.711Z,98705.34
2022-09-27T11:24:10.995Z,98699.56
2022-09-27T11:29:27.800Z,98689.91
2022-09-27T11:34:54.106Z,98685.66
2022-09-27T11:40:08.681Z,98681.69
2022-09-27T11:51:11.922Z,98682.19
2022-09-27T11:56:28.322Z,98686.44
2022-09-27T12:01:44.563Z,98679.53
2022-09-27T12:06:55.778Z,98673.75
2022-09-27T12:12:03.821Z,98678.38
2022-09-27T12:17:16.333Z,98678.38
2022-09-27T12:22:46.734Z,98683.81
2022-09-27T12:27:51.872Z,98672.03
2022-09-27T12:33:12.065Z,98674.03
2022-09-27T12:38:19.725Z,98659.28
2022-09-27T12:43:25.012Z,98656.63
2022-09-27T12:48:38.207Z,98652.13
2022-09-27T12:53:57.795Z,98642.28
2022-09-27T12:59:27.274Z,98645.72
2022-09-27T13:04:47.813Z,98637.97
2022-09-27T13:10:27.212Z,98640.09
2022-09-27T13:15:34.629Z,98634.13
2022-09-27T13:20:49.068Z,98626.84
2022-09-27T13:25:56.562Z,98630.31
2022-09-27T13:31:01.931Z,98623.34
2022-09-27T13:36:33.682Z,98626.69
2022-09-27T13:42:00.248Z,98624.09
2022-09-27T13:47:16.160Z,98617.53
2022-09-27T13:52:33.995Z,98616.41
2022-09-27T13:57:46.531Z,98608.72
2022-09-27T14:03:02.771Z,98613.56
2022-09-27T14:08:17.476Z,98601.94
2022-09-27T14:13:22.236Z,98606.63
2022-09-27T14:18:26.454Z,98606.09
2022-09-27T14:23:32.438Z,98609.91
2022-09-27T14:28:43.857Z,98608.50
2022-09-27T14:33:47.554Z,98607.31
2022-09-27T14:38:53.187Z,98600.41
2022-09-27T14:43:56.583Z,98599.63
2022-09-27T14:49:01.266Z,98609.31
2022-09-27T14:54:11.388Z,98603.41
2022-09-27T14:59:18.121Z,98585.97
2022-09-27T15:04:24.514Z,98582.72
2022-09-27T15:09:33.106Z,98580.94
2022-09-27T15:14:41.567Z,98584.47
2022-09-27T15:19:59.516Z,98594.44
2022-09-27T15:25:19.567Z,98558.13
2022-09-27T15:30:30.041Z,98583.25
2022-09-27T15:35:36.359Z,98573.03
2022-09-27T15:41:07.067Z,98582.56
2022-09-27T15:46:43.126Z,98572.75
2022-09-27T15:51:49.186Z,98577.59
2022-09-27T15:56:57.128Z,98576.31
2022-09-27T16:02:07.756Z,98570.56
2022-09-27T16:07:13.958Z,98565.75
2022-09-27T16:12:19.077Z,98553.88
2022-09-27T16:17:23.825Z,98547.19
2022-09-27T16:22:26.950Z,98542.25
2022-09-27T16:27:32.566Z,98536.34
2022-09-27T16:32:41.259Z,98527.94
2022-09-27T16:37:46.130Z,98531.47
2022-09-27T16:42:51.157Z,98542.09
2022-09-27T16:47:55.411Z,98539.59
2022-09-27T16:53:00.337Z,98537.19
2022-09-27T16:58:08.174Z,98535.44
2022-09-27T17:03:12.207Z,98543.28
2022-09-27T17:08:16.630Z,98541.63
2022-09-27T17:13:22.043Z,98539.97
2022-09-27T17:18:26.333Z,98534.00
2022-09-27T17:23:29.937Z,98534.03
2022-09-27T17:28:36.448Z,98532.34
2022-09-27T17:33:44.747Z,98523.78
2022-09-27T17:38:50.824Z,98519.63
2022-09-27T17:43:58.079Z,98523.25
2022-09-27T17:49:20.041Z,98516.41
2022-09-27T17:54:26.339Z,98506.91
2022-09-27T17:59:31.955Z,98494.00
2022-09-27T18:04:35.732Z,98494.16
2022-09-27T18:09:40.310Z,98494.16
2022-09-27T18:14:45.949Z,98498.53
2022-09-27T18:19:50.182Z,98483.88
2022-09-27T18:24:53.895Z,98490.69
2022-09-27T18:30:00.242Z,98491.50
2022-09-27T18:35:03.798Z,98489.66
2022-09-27T18:40:08.849Z,98487.09
2022-09-27T18:45:14.004Z,98485.34
2022-09-27T18:50:17.973Z,98477.56
2022-09-27T18:55:25.287Z,98449.97
2022-09-27T19:00:32.144Z,98448.31
2022-09-27T19:05:36.513Z,98435.53
2022-09-27T19:10:40.879Z,98434.72
2022-09-27T19:15:55.862Z,98436.47
2022-09-27T19:21:08.368Z,98437.31
2022-09-27T19:26:16.662Z,98409.72
2022-09-27T19:31:24.547Z,98413.22
2022-09-27T19:36:29.411Z,98409.91
2022-09-27T19:41:33.366Z,98413.38
2022-09-27T19:46:39.951Z,98395.25
2022-09-27T19:51:44.125Z,98393.59
2022-09-27T19:56:50.133Z,98395.34
2022-09-27T20:01:55.549Z,98396.22
2022-09-27T20:06:59.674Z,98395.34
2022-09-27T20:12:04.982Z,98393.72
2022-09-27T20:17:10.533Z,98391.94
2022-09-27T20:22:14.605Z,98383.34
2022-09-27T20:27:18.887Z,98378.16
2022-09-27T20:32:27.697Z,98373.03
2022-09-27T20:37:32.940Z,98369.56
2022-09-27T20:42:36.051Z,98357.53
2022-09-27T20:47:41.474Z,98352.34
2022-09-27T20:52:45.353Z,98344.59
2022-09-27T20:57:57.316Z,98332.59
2022-09-27T21:03:02.627Z,98330.03
2022-09-27T21:08:06.832Z,98326.59
2022-09-27T21:13:10.283Z,98330.84
2022-09-27T21:18:15.769Z,98322.19
2022-09-27T21:23:19.170Z,98310.19
2022-09-27T21:28:23.230Z,98310.03
2022-09-27T21:33:27.957Z,98303.91
2022-09-27T21:38:32.060Z,98290.03
2022-09-27T21:43:37.700Z,98290.91
2022-09-27T21:48:45.657Z,98276.28
2022-09-27T21:53:52.412Z,98284.78
2022-09-27T21:58:57.043Z,98271.09
2022-09-27T22:04:03.056Z,98265.84
2022-09-27T22:09:09.196Z,98262.50
2022-09-27T22:14:13.352Z,98247.81
2022-09-27T22:19:19.102Z,98242.47
2022-09-27T22:24:22.875Z,98238.00
2022-09-27T22:29:26.969Z,98231.97
2022-09-27T22:34:31.894Z,98231.91
2022-09-27T22:39:35.997Z,98227.63
2022-09-27T22:44:39.449Z,98227.53
2022-09-27T22:49:44.945Z,98214.44
2022-09-27T22:54:48.376Z,98208.63
2022-09-27T22:59:52.565Z,98203.34
2022-09-27T23:04:57.976Z,98199.88
2022-09-27T23:10:02.168Z,98189.50
2022-09-27T23:15:07.883Z,98180.97
2022-09-27T23:20:15.127Z,98162.81
2022-09-27T23:25:19.400Z,98164.50
2022-09-27T23:30:27.919Z,98158.31
2022-09-27T23:35:34.433Z,98152.19
2022-09-27T23:40:38.550Z,98142.78
2022-09-27T23:45:42.874Z,98139.31
2022-09-27T23:50:49.075Z,98126.44
2022-09-27T23:56:03.009Z,98117.03
